sensor_id;sensor_type;location;lat;lon;timestamp;P1;durP1;ratioP1;P2;durP2;ratioP2
67904;SDS011;54709;43.614;1.576;2022-12-29T00:01:25;26.25;;;15.93;;
67904;SDS011;54709;43.614;1.576;2022-12-29T00:03:50;28.67;;;15.93;;
67904;SDS011;54709;43.614;1.576;2022-12-29T00:06:16;26.65;;;15.48;;
67904;SDS011;54709;43.614;1.576;2022-12-29T00:08:41;23.52;;;15.65;;
67904;SDS011;54709;43.614;1.576;2022-12-29T00:11:11;25.75;;;16.52;;
67904;SDS011;54709;43.614;1.576;2022-12-29T00:13:46;27.13;;;15.65;;
67904;SDS011;54709;43.614;1.576;2022-12-29T00:16:30;21.02;;;14.45;;
67904;SDS011;54709;43.614;1.576;2022-12-29T00:18:56;27.67;;;16.38;;
67904;SDS011;54709;43.614;1.576;2022-12-29T00:21:22;28.27;;;15.48;;
67904;SDS011;54709;43.614;1.576;2022-12-29T00:24:09;24.77;;;16.50;;
67904;SDS011;54709;43.614;1.576;2022-12-29T00:29:47;26.73;;;16.05;;
67904;SDS011;54709;43.614;1.576;2022-12-29T00:32:33;27.35;;;18.20;;
67904;SDS011;54709;43.614;1.576;2022-12-29T00:35:23;26.77;;;16.27;;
67904;SDS011;54709;43.614;1.576;2022-12-29T00:37:50;28.83;;;17.33;;
67904;SDS011;54709;43.614;1.576;2022-12-29T00:40:35;27.23;;;17.52;;
67904;SDS011;54709;43.614;1.576;2022-12-29T00:43:19;27.27;;;17.00;;
67904;SDS011;54709;43.614;1.576;2022-12-29T00:46:03;30.05;;;17.25;;
67904;SDS011;54709;43.614;1.576;2022-12-29T00:48:28;24.35;;;15.18;;
67904;SDS011;54709;43.614;1.576;2022-12-29T00:51:12;29.85;;;15.88;;
67904;SDS011;54709;43.614;1.576;2022-12-29T00:53:38;25.08;;;16.85;;
67904;SDS011;54709;43.614;1.576;2022-12-29T00:56:03;29.48;;;16.95;;
67904;SDS011;54709;43.614;1.576;2022-12-29T00:58:29;26.77;;;16.70;;
67904;SDS011;54709;43.614;1.576;2022-12-29T01:01:28;25.52;;;16.50;;
67904;SDS011;54709;43.614;1.576;2022-12-29T01:03:46;25.88;;;15.25;;
67904;SDS011;54709;43.614;1.576;2022-12-29T01:06:12;21.95;;;15.75;;
67904;SDS011;54709;43.614;1.576;2022-12-29T01:08:37;28.50;;;15.85;;
67904;SDS011;54709;43.614;1.576;2022-12-29T01:11:04;21.88;;;15.02;;
67904;SDS011;54709;43.614;1.576;2022-12-29T01:13:34;26.17;;;14.27;;
67904;SDS011;54709;43.614;1.576;2022-12-29T01:15:59;23.98;;;15.07;;
67904;SDS011;54709;43.614;1.576;2022-12-29T01:18:25;22.25;;;14.50;;
67904;SDS011;54709;43.614;1.576;2022-12-29T01:20:57;24.70;;;15.10;;
67904;SDS011;54709;43.614;1.576;2022-12-29T01:23:26;26.40;;;15.10;;
67904;SDS011;54709;43.614;1.576;2022-12-29T01:25:52;26.70;;;15.40;;
67904;SDS011;54709;43.614;1.576;2022-12-29T01:28:18;21.00;;;14.60;;
67904;SDS011;54709;43.614;1.576;2022-12-29T01:30:43;23.33;;;14.05;;
67904;SDS011;54709;43.614;1.576;2022-12-29T01:33:08;24.00;;;14.10;;
67904;SDS011;54709;43.614;1.576;2022-12-29T01:35:34;23.50;;;14.07;;
67904;SDS011;54709;43.614;1.576;2022-12-29T01:37:59;23.35;;;14.73;;
67904;SDS011;54709;43.614;1.576;2022-12-29T01:40:25;21.50;;;13.48;;
67904;SDS011;54709;43.614;1.576;2022-12-29T01:42:50;23.98;;;14.75;;
67904;SDS011;54709;43.614;1.576;2022-12-29T01:45:16;23.17;;;14.43;;
67904;SDS011;54709;43.614;1.576;2022-12-29T01:47:43;23.23;;;14.25;;
67904;SDS011;54709;43.614;1.576;2022-12-29T01:50:16;22.40;;;14.48;;
67904;SDS011;54709;43.614;1.576;2022-12-29T01:52:51;28.77;;;14.60;;
67904;SDS011;54709;43.614;1.576;2022-12-29T01:55:28;22.40;;;13.90;;
67904;SDS011;54709;43.614;1.576;2022-12-29T01:57:56;24.05;;;14.18;;
67904;SDS011;54709;43.614;1.576;2022-12-29T02:00:26;22.15;;;13.77;;
67904;SDS011;54709;43.614;1.576;2022-12-29T02:02:52;26.55;;;14.25;;
67904;SDS011;54709;43.614;1.576;2022-12-29T02:05:20;22.75;;;13.70;;
67904;SDS011;54709;43.614;1.576;2022-12-29T02:07:50;25.55;;;14.57;;
67904;SDS011;54709;43.614;1.576;2022-12-29T02:10:17;24.85;;;14.40;;
67904;SDS011;54709;43.614;1.576;2022-12-29T02:12:45;19.90;;;13.27;;
67904;SDS011;54709;43.614;1.576;2022-12-29T02:15:10;22.58;;;12.85;;
67904;SDS011;54709;43.614;1.576;2022-12-29T02:17:41;26.15;;;14.77;;
67904;SDS011;54709;43.614;1.576;2022-12-29T02:25:35;27.60;;;14.73;;
67904;SDS011;54709;43.614;1.576;2022-12-29T02:31:37;22.60;;;14.05;;
67904;SDS011;54709;43.614;1.576;2022-12-29T02:34:20;20.52;;;14.35;;
67904;SDS011;54709;43.614;1.576;2022-12-29T02:39:22;21.95;;;14.13;;
67904;SDS011;54709;43.614;1.576;2022-12-29T02:47:36;30.25;;;14.02;;
67904;SDS011;54709;43.614;1.576;2022-12-29T02:50:15;24.30;;;14.07;;
67904;SDS011;54709;43.614;1.576;2022-12-29T02:52:44;26.67;;;14.73;;
67904;SDS011;54709;43.614;1.576;2022-12-29T02:55:13;31.63;;;15.77;;
67904;SDS011;54709;43.614;1.576;2022-12-29T02:57:39;24.08;;;14.30;;
67904;SDS011;54709;43.614;1.576;2022-12-29T03:10:35;25.33;;;13.90;;
67904;SDS011;54709;43.614;1.576;2022-12-29T03:13:18;23.83;;;13.48;;
67904;SDS011;54709;43.614;1.576;2022-12-29T03:21:09;30.08;;;13.35;;
67904;SDS011;54709;43.614;1.576;2022-12-29T03:23:37;25.17;;;13.17;;
67904;SDS011;54709;43.614;1.576;2022-12-29T03:26:06;24.10;;;12.63;;
67904;SDS011;54709;43.614;1.576;2022-12-29T03:28:35;22.83;;;12.60;;
67904;SDS011;54709;43.614;1.576;2022-12-29T03:31:03;24.48;;;12.27;;
67904;SDS011;54709;43.614;1.576;2022-12-29T03:33:29;21.50;;;12.18;;
67904;SDS011;54709;43.614;1.576;2022-12-29T03:36:04;27.33;;;13.15;;
67904;SDS011;54709;43.614;1.576;2022-12-29T03:38:37;23.55;;;12.77;;
67904;SDS011;54709;43.614;1.576;2022-12-29T03:41:08;23.23;;;13.30;;
67904;SDS011;54709;43.614;1.576;2022-12-29T03:43:36;26.00;;;12.70;;
67904;SDS011;54709;43.614;1.576;2022-12-29T03:46:02;21.02;;;12.27;;
67904;SDS011;54709;43.614;1.576;2022-12-29T03:48:27;21.13;;;12.20;;
67904;SDS011;54709;43.614;1.576;2022-12-29T03:50:53;19.85;;;12.35;;
67904;SDS011;54709;43.614;1.576;2022-12-29T03:53:18;22.52;;;11.63;;
67904;SDS011;54709;43.614;1.576;2022-12-29T03:55:43;24.42;;;12.07;;
67904;SDS011;54709;43.614;1.576;2022-12-29T03:58:09;22.15;;;11.80;;
67904;SDS011;54709;43.614;1.576;2022-12-29T04:00:34;22.20;;;12.20;;
67904;SDS011;54709;43.614;1.576;2022-12-29T04:03:00;25.77;;;11.80;;
67904;SDS011;54709;43.614;1.576;2022-12-29T04:05:25;23.45;;;11.63;;
67904;SDS011;54709;43.614;1.576;2022-12-29T04:07:50;21.15;;;12.02;;
67904;SDS011;54709;43.614;1.576;2022-12-29T04:10:16;22.10;;;10.98;;
67904;SDS011;54709;43.614;1.576;2022-12-29T04:12:41;24.45;;;11.10;;
67904;SDS011;54709;43.614;1.576;2022-12-29T04:15:07;21.65;;;11.20;;
67904;SDS011;54709;43.614;1.576;2022-12-29T04:17:33;16.55;;;11.13;;
67904;SDS011;54709;43.614;1.576;2022-12-29T04:19:58;21.15;;;11.00;;
67904;SDS011;54709;43.614;1.576;2022-12-29T04:22:43;23.60;;;11.70;;
67904;SDS011;54709;43.614;1.576;2022-12-29T04:25:08;17.77;;;10.50;;
67904;SDS011;54709;43.614;1.576;2022-12-29T04:27:33;28.20;;;10.70;;
67904;SDS011;54709;43.614;1.576;2022-12-29T04:29:59;22.02;;;10.85;;
67904;SDS011;54709;43.614;1.576;2022-12-29T04:32:24;16.83;;;10.85;;
67904;SDS011;54709;43.614;1.576;2022-12-29T04:34:50;20.20;;;10.77;;
67904;SDS011;54709;43.614;1.576;2022-12-29T04:37:15;21.27;;;10.68;;
67904;SDS011;54709;43.614;1.576;2022-12-29T04:39:41;22.00;;;10.77;;
67904;SDS011;54709;43.614;1.576;2022-12-29T04:42:06;17.25;;;10.30;;
67904;SDS011;54709;43.614;1.576;2022-12-29T04:44:32;20.45;;;10.25;;
67904;SDS011;54709;43.614;1.576;2022-12-29T04:46:57;18.50;;;10.35;;
67904;SDS011;54709;43.614;1.576;2022-12-29T04:49:22;16.98;;;9.20;;
67904;SDS011;54709;43.614;1.576;2022-12-29T04:51:48;22.15;;;10.70;;
67904;SDS011;54709;43.614;1.576;2022-12-29T04:54:13;20.58;;;10.88;;
67904;SDS011;54709;43.614;1.576;2022-12-29T04:56:38;16.85;;;9.57;;
67904;SDS011;54709;43.614;1.576;2022-12-29T04:59:04;21.70;;;10.63;;
67904;SDS011;54709;43.614;1.576;2022-12-29T05:01:30;20.25;;;10.32;;
67904;SDS011;54709;43.614;1.576;2022-12-29T05:03:55;17.40;;;9.75;;
67904;SDS011;54709;43.614;1.576;2022-12-29T05:06:20;17.73;;;9.88;;
67904;SDS011;54709;43.614;1.576;2022-12-29T05:08:46;16.23;;;9.52;;
67904;SDS011;54709;43.614;1.576;2022-12-29T05:11:11;19.33;;;10.00;;
67904;SDS011;54709;43.614;1.576;2022-12-29T05:13:37;20.45;;;10.05;;
67904;SDS011;54709;43.614;1.576;2022-12-29T05:16:02;19.80;;;9.52;;
67904;SDS011;54709;43.614;1.576;2022-12-29T05:18:27;17.73;;;9.50;;
67904;SDS011;54709;43.614;1.576;2022-12-29T05:20:53;20.63;;;9.68;;
67904;SDS011;54709;43.614;1.576;2022-12-29T05:23:18;20.17;;;10.02;;
67904;SDS011;54709;43.614;1.576;2022-12-29T05:25:44;18.00;;;9.82;;
67904;SDS011;54709;43.614;1.576;2022-12-29T05:28:10;21.58;;;10.32;;
67904;SDS011;54709;43.614;1.576;2022-12-29T05:30:36;22.67;;;10.32;;
67904;SDS011;54709;43.614;1.576;2022-12-29T05:33:01;21.63;;;10.05;;
67904;SDS011;54709;43.614;1.576;2022-12-29T05:35:27;19.15;;;10.95;;
67904;SDS011;54709;43.614;1.576;2022-12-29T05:37:52;18.60;;;10.25;;
67904;SDS011;54709;43.614;1.576;2022-12-29T05:40:17;23.35;;;11.02;;
67904;SDS011;54709;43.614;1.576;2022-12-29T05:42:43;25.15;;;10.40;;
67904;SDS011;54709;43.614;1.576;2022-12-29T05:45:08;26.02;;;11.00;;
67904;SDS011;54709;43.614;1.576;2022-12-29T05:47:34;20.08;;;10.77;;
67904;SDS011;54709;43.614;1.576;2022-12-29T05:49:59;18.35;;;10.15;;
67904;SDS011;54709;43.614;1.576;2022-12-29T05:52:25;22.92;;;11.30;;
67904;SDS011;54709;43.614;1.576;2022-12-29T05:54:51;24.02;;;11.02;;
67904;SDS011;54709;43.614;1.576;2022-12-29T05:57:16;18.45;;;10.40;;
67904;SDS011;54709;43.614;1.576;2022-12-29T05:59:41;21.70;;;10.15;;
67904;SDS011;54709;43.614;1.576;2022-12-29T06:02:07;23.30;;;10.93;;
67904;SDS011;54709;43.614;1.576;2022-12-29T06:04:32;24.13;;;10.65;;
67904;SDS011;54709;43.614;1.576;2022-12-29T06:06:58;20.85;;;11.23;;
67904;SDS011;54709;43.614;1.576;2022-12-29T06:09:23;20.45;;;10.73;;
67904;SDS011;54709;43.614;1.576;2022-12-29T06:11:48;21.58;;;10.52;;
67904;SDS011;54709;43.614;1.576;2022-12-29T06:14:14;20.73;;;10.57;;
67904;SDS011;54709;43.614;1.576;2022-12-29T06:16:39;24.95;;;10.65;;
67904;SDS011;54709;43.614;1.576;2022-12-29T06:19:05;24.25;;;11.40;;
67904;SDS011;54709;43.614;1.576;2022-12-29T06:21:30;21.25;;;10.70;;
67904;SDS011;54709;43.614;1.576;2022-12-29T06:23:55;18.73;;;10.32;;
67904;SDS011;54709;43.614;1.576;2022-12-29T06:26:21;20.20;;;11.02;;
67904;SDS011;54709;43.614;1.576;2022-12-29T06:28:46;21.15;;;10.63;;
67904;SDS011;54709;43.614;1.576;2022-12-29T06:31:11;19.60;;;10.02;;
67904;SDS011;54709;43.614;1.576;2022-12-29T06:33:37;22.13;;;10.98;;
67904;SDS011;54709;43.614;1.576;2022-12-29T06:36:03;22.55;;;11.10;;
67904;SDS011;54709;43.614;1.576;2022-12-29T06:38:29;22.25;;;11.20;;
67904;SDS011;54709;43.614;1.576;2022-12-29T06:40:54;25.02;;;11.27;;
67904;SDS011;54709;43.614;1.576;2022-12-29T06:43:20;22.98;;;11.00;;
67904;SDS011;54709;43.614;1.576;2022-12-29T06:45:45;22.08;;;10.48;;
67904;SDS011;54709;43.614;1.576;2022-12-29T06:48:11;25.13;;;10.70;;
67904;SDS011;54709;43.614;1.576;2022-12-29T06:50:36;22.05;;;10.68;;
67904;SDS011;54709;43.614;1.576;2022-12-29T06:53:02;25.83;;;10.55;;
67904;SDS011;54709;43.614;1.576;2022-12-29T06:55:28;22.63;;;10.98;;
67904;SDS011;54709;43.614;1.576;2022-12-29T06:57:54;18.88;;;10.02;;
67904;SDS011;54709;43.614;1.576;2022-12-29T07:00:23;24.40;;;10.20;;
67904;SDS011;54709;43.614;1.576;2022-12-29T07:02:49;20.85;;;10.43;;
67904;SDS011;54709;43.614;1.576;2022-12-29T07:05:15;22.40;;;10.30;;
67904;SDS011;54709;43.614;1.576;2022-12-29T07:07:40;21.85;;;10.13;;
67904;SDS011;54709;43.614;1.576;2022-12-29T07:10:06;22.23;;;9.85;;
67904;SDS011;54709;43.614;1.576;2022-12-29T07:12:31;22.98;;;10.07;;
67904;SDS011;54709;43.614;1.576;2022-12-29T07:14:57;17.63;;;10.13;;
67904;SDS011;54709;43.614;1.576;2022-12-29T07:17:22;19.20;;;9.95;;
67904;SDS011;54709;43.614;1.576;2022-12-29T07:19:48;18.30;;;9.25;;
67904;SDS011;54709;43.614;1.576;2022-12-29T07:22:13;19.77;;;9.15;;
67904;SDS011;54709;43.614;1.576;2022-12-29T07:24:38;24.35;;;9.93;;
67904;SDS011;54709;43.614;1.576;2022-12-29T07:27:04;23.38;;;9.85;;
67904;SDS011;54709;43.614;1.576;2022-12-29T07:29:29;22.35;;;10.00;;
67904;SDS011;54709;43.614;1.576;2022-12-29T07:31:55;24.73;;;9.85;;
67904;SDS011;54709;43.614;1.576;2022-12-29T07:34:20;23.75;;;9.52;;
67904;SDS011;54709;43.614;1.576;2022-12-29T07:36:45;22.75;;;9.25;;
67904;SDS011;54709;43.614;1.576;2022-12-29T07:39:11;17.40;;;8.90;;
67904;SDS011;54709;43.614;1.576;2022-12-29T07:41:37;21.30;;;9.70;;
67904;SDS011;54709;43.614;1.576;2022-12-29T07:44:02;21.88;;;9.63;;
67904;SDS011;54709;43.614;1.576;2022-12-29T07:46:28;18.25;;;9.52;;
67904;SDS011;54709;43.614;1.576;2022-12-29T07:48:53;17.73;;;8.60;;
67904;SDS011;54709;43.614;1.576;2022-12-29T07:51:19;20.48;;;9.50;;
67904;SDS011;54709;43.614;1.576;2022-12-29T07:53:44;18.00;;;9.52;;
67904;SDS011;54709;43.614;1.576;2022-12-29T07:56:10;22.27;;;9.13;;
67904;SDS011;54709;43.614;1.576;2022-12-29T07:58:35;20.85;;;9.27;;
67904;SDS011;54709;43.614;1.576;2022-12-29T08:01:00;17.65;;;8.88;;
67904;SDS011;54709;43.614;1.576;2022-12-29T08:03:26;20.15;;;8.68;;
67904;SDS011;54709;43.614;1.576;2022-12-29T08:05:51;26.55;;;9.20;;
67904;SDS011;54709;43.614;1.576;2022-12-29T08:08:17;22.35;;;9.45;;
67904;SDS011;54709;43.614;1.576;2022-12-29T08:10:42;15.77;;;8.50;;
67904;SDS011;54709;43.614;1.576;2022-12-29T08:13:07;20.38;;;8.85;;
67904;SDS011;54709;43.614;1.576;2022-12-29T08:15:33;24.10;;;8.93;;
67904;SDS011;54709;43.614;1.576;2022-12-29T08:17:58;21.83;;;8.75;;
67904;SDS011;54709;43.614;1.576;2022-12-29T08:20:24;19.08;;;8.55;;
67904;SDS011;54709;43.614;1.576;2022-12-29T08:22:50;20.25;;;8.43;;
67904;SDS011;54709;43.614;1.576;2022-12-29T08:25:15;15.38;;;8.75;;
67904;SDS011;54709;43.614;1.576;2022-12-29T08:27:41;21.83;;;9.23;;
67904;SDS011;54709;43.614;1.576;2022-12-29T08:30:07;21.52;;;9.43;;
67904;SDS011;54709;43.614;1.576;2022-12-29T08:32:33;19.90;;;9.43;;
67904;SDS011;54709;43.614;1.576;2022-12-29T08:34:58;17.05;;;8.63;;
67904;SDS011;54709;43.614;1.576;2022-12-29T08:37:24;16.88;;;8.55;;
67904;SDS011;54709;43.614;1.576;2022-12-29T08:39:49;15.82;;;8.30;;
67904;SDS011;54709;43.614;1.576;2022-12-29T08:42:15;17.42;;;7.95;;
67904;SDS011;54709;43.614;1.576;2022-12-29T08:44:40;18.20;;;8.15;;
67904;SDS011;54709;43.614;1.576;2022-12-29T08:47:06;16.55;;;8.10;;
67904;SDS011;54709;43.614;1.576;2022-12-29T08:49:31;20.13;;;8.77;;
67904;SDS011;54709;43.614;1.576;2022-12-29T08:51:58;24.65;;;9.23;;
67904;SDS011;54709;43.614;1.576;2022-12-29T08:54:23;24.30;;;9.13;;
67904;SDS011;54709;43.614;1.576;2022-12-29T08:56:49;21.73;;;9.20;;
67904;SDS011;54709;43.614;1.576;2022-12-29T08:59:14;20.70;;;8.10;;
67904;SDS011;54709;43.614;1.576;2022-12-29T09:01:40;17.92;;;8.60;;
67904;SDS011;54709;43.614;1.576;2022-12-29T09:04:05;25.60;;;8.77;;
67904;SDS011;54709;43.614;1.576;2022-12-29T09:06:31;24.40;;;8.57;;
67904;SDS011;54709;43.614;1.576;2022-12-29T09:08:57;20.40;;;8.45;;
67904;SDS011;54709;43.614;1.576;2022-12-29T09:11:23;19.63;;;8.40;;
67904;SDS011;54709;43.614;1.576;2022-12-29T09:13:49;20.42;;;9.43;;
67904;SDS011;54709;43.614;1.576;2022-12-29T09:16:15;29.23;;;8.80;;
67904;SDS011;54709;43.614;1.576;2022-12-29T09:18:41;14.93;;;8.55;;
67904;SDS011;54709;43.614;1.576;2022-12-29T09:21:06;22.10;;;8.52;;
67904;SDS011;54709;43.614;1.576;2022-12-29T09:23:32;18.17;;;9.20;;
67904;SDS011;54709;43.614;1.576;2022-12-29T09:25:58;22.17;;;8.70;;
67904;SDS011;54709;43.614;1.576;2022-12-29T09:28:24;21.90;;;8.77;;
67904;SDS011;54709;43.614;1.576;2022-12-29T09:30:50;19.50;;;8.63;;
67904;SDS011;54709;43.614;1.576;2022-12-29T09:33:16;18.63;;;8.15;;
67904;SDS011;54709;43.614;1.576;2022-12-29T09:35:42;18.52;;;8.38;;
67904;SDS011;54709;43.614;1.576;2022-12-29T09:40:40;20.67;;;8.98;;
67904;SDS011;54709;43.614;1.576;2022-12-29T09:49:07;20.00;;;7.93;;
67904;SDS011;54709;43.614;1.576;2022-12-29T09:51:39;20.42;;;8.23;;
67904;SDS011;54709;43.614;1.576;2022-12-29T09:57:13;15.10;;;6.70;;
67904;SDS011;54709;43.614;1.576;2022-12-29T09:59:42;20.90;;;7.25;;
67904;SDS011;54709;43.614;1.576;2022-12-29T10:02:29;15.60;;;7.40;;
67904;SDS011;54709;43.614;1.576;2022-12-29T10:06:03;14.32;;;6.82;;
67904;SDS011;54709;43.614;1.576;2022-12-29T10:08:34;18.83;;;7.40;;
67904;SDS011;54709;43.614;1.576;2022-12-29T10:19:11;17.40;;;7.10;;
67904;SDS011;54709;43.614;1.576;2022-12-29T10:24:18;15.98;;;6.35;;
67904;SDS011;54709;43.614;1.576;2022-12-29T10:26:44;18.70;;;6.47;;
67904;SDS011;54709;43.614;1.576;2022-12-29T10:31:45;20.13;;;6.90;;
67904;SDS011;54709;43.614;1.576;2022-12-29T10:36:51;15.52;;;7.00;;
67904;SDS011;54709;43.614;1.576;2022-12-29T10:41:57;13.80;;;5.82;;
67904;SDS011;54709;43.614;1.576;2022-12-29T10:44:26;14.63;;;5.97;;
67904;SDS011;54709;43.614;1.576;2022-12-29T10:46:59;15.20;;;5.93;;
67904;SDS011;54709;43.614;1.576;2022-12-29T10:49:29;15.90;;;6.22;;
67904;SDS011;54709;43.614;1.576;2022-12-29T10:51:57;13.48;;;6.53;;
67904;SDS011;54709;43.614;1.576;2022-12-29T10:54:32;17.20;;;6.10;;
67904;SDS011;54709;43.614;1.576;2022-12-29T10:57:03;15.85;;;6.10;;
67904;SDS011;54709;43.614;1.576;2022-12-29T10:59:33;14.67;;;6.23;;
67904;SDS011;54709;43.614;1.576;2022-12-29T11:07:46;14.43;;;5.82;;
67904;SDS011;54709;43.614;1.576;2022-12-29T11:15:39;17.38;;;5.60;;
67904;SDS011;54709;43.614;1.576;2022-12-29T11:18:17;15.80;;;5.30;;
67904;SDS011;54709;43.614;1.576;2022-12-29T11:20:43;11.43;;;5.50;;
67904;SDS011;54709;43.614;1.576;2022-12-29T11:29:03;15.18;;;5.13;;
67904;SDS011;54709;43.614;1.576;2022-12-29T11:31:46;18.42;;;5.82;;
67904;SDS011;54709;43.614;1.576;2022-12-29T11:34:22;12.90;;;5.60;;
67904;SDS011;54709;43.614;1.576;2022-12-29T11:36:50;15.68;;;5.80;;
67904;SDS011;54709;43.614;1.576;2022-12-29T11:39:31;11.85;;;5.80;;
67904;SDS011;54709;43.614;1.576;2022-12-29T11:41:57;11.60;;;5.47;;
67904;SDS011;54709;43.614;1.576;2022-12-29T11:44:23;15.68;;;5.65;;
67904;SDS011;54709;43.614;1.576;2022-12-29T11:46:50;14.70;;;5.53;;
67904;SDS011;54709;43.614;1.576;2022-12-29T11:49:23;13.77;;;5.07;;
67904;SDS011;54709;43.614;1.576;2022-12-29T11:51:49;12.77;;;5.45;;
67904;SDS011;54709;43.614;1.576;2022-12-29T11:54:23;13.80;;;5.68;;
67904;SDS011;54709;43.614;1.576;2022-12-29T11:56:55;13.70;;;5.10;;
67904;SDS011;54709;43.614;1.576;2022-12-29T12:01:54;12.32;;;5.18;;
67904;SDS011;54709;43.614;1.576;2022-12-29T12:04:22;9.75;;;4.90;;
67904;SDS011;54709;43.614;1.576;2022-12-29T12:10:11;16.05;;;5.50;;
67904;SDS011;54709;43.614;1.576;2022-12-29T12:12:32;15.65;;;5.43;;
67904;SDS011;54709;43.614;1.576;2022-12-29T12:15:03;10.48;;;4.80;;
67904;SDS011;54709;43.614;1.576;2022-12-29T12:17:37;13.30;;;5.10;;
67904;SDS011;54709;43.614;1.576;2022-12-29T12:20:17;13.27;;;5.30;;
67904;SDS011;54709;43.614;1.576;2022-12-29T12:22:54;13.48;;;5.43;;
67904;SDS011;54709;43.614;1.576;2022-12-29T12:25:30;10.40;;;5.20;;
67904;SDS011;54709;43.614;1.576;2022-12-29T12:28:01;7.57;;;4.72;;
67904;SDS011;54709;43.614;1.576;2022-12-29T12:30:36;10.90;;;4.97;;
67904;SDS011;54709;43.614;1.576;2022-12-29T12:33:10;17.35;;;5.68;;
67904;SDS011;54709;43.614;1.576;2022-12-29T12:36:07;15.82;;;5.45;;
67904;SDS011;54709;43.614;1.576;2022-12-29T12:38:53;11.45;;;5.05;;
67904;SDS011;54709;43.614;1.576;2022-12-29T12:41:45;8.43;;;4.88;;
67904;SDS011;54709;43.614;1.576;2022-12-29T13:00:11;16.65;;;5.07;;
67904;SDS011;54709;43.614;1.576;2022-12-29T13:05:29;12.20;;;4.80;;
67904;SDS011;54709;43.614;1.576;2022-12-29T13:11:16;20.60;;;4.80;;
67904;SDS011;54709;43.614;1.576;2022-12-29T13:16:40;11.90;;;5.05;;
67904;SDS011;54709;43.614;1.576;2022-12-29T13:22:05;14.65;;;4.82;;
67904;SDS011;54709;43.614;1.576;2022-12-29T13:35:01;10.15;;;4.40;;
67904;SDS011;54709;43.614;1.576;2022-12-29T13:37:34;14.45;;;4.97;;
67904;SDS011;54709;43.614;1.576;2022-12-29T13:40:17;9.88;;;4.25;;
67904;SDS011;54709;43.614;1.576;2022-12-29T13:42:44;8.90;;;4.57;;
67904;SDS011;54709;43.614;1.576;2022-12-29T13:45:12;9.75;;;4.75;;
67904;SDS011;54709;43.614;1.576;2022-12-29T13:47:44;10.90;;;4.80;;
67904;SDS011;54709;43.614;1.576;2022-12-29T13:50:24;13.65;;;5.15;;
67904;SDS011;54709;43.614;1.576;2022-12-29T13:55:40;12.77;;;4.60;;
67904;SDS011;54709;43.614;1.576;2022-12-29T13:58:26;8.77;;;4.55;;
67904;SDS011;54709;43.614;1.576;2022-12-29T14:03:49;17.10;;;5.35;;
67904;SDS011;54709;43.614;1.576;2022-12-29T14:06:23;15.55;;;5.72;;
67904;SDS011;54709;43.614;1.576;2022-12-29T14:08:50;13.13;;;5.60;;
67904;SDS011;54709;43.614;1.576;2022-12-29T14:11:20;15.82;;;6.75;;
67904;SDS011;54709;43.614;1.576;2022-12-29T14:13:49;13.00;;;6.55;;
67904;SDS011;54709;43.614;1.576;2022-12-29T14:16:24;14.98;;;6.07;;
67904;SDS011;54709;43.614;1.576;2022-12-29T14:18:50;8.23;;;5.30;;
67904;SDS011;54709;43.614;1.576;2022-12-29T14:23:47;14.77;;;5.88;;
67904;SDS011;54709;43.614;1.576;2022-12-29T14:26:18;14.35;;;6.20;;
67904;SDS011;54709;43.614;1.576;2022-12-29T14:31:46;13.23;;;5.60;;
67904;SDS011;54709;43.614;1.576;2022-12-29T14:44:48;14.90;;;6.25;;
67904;SDS011;54709;43.614;1.576;2022-12-29T14:47:21;10.20;;;5.88;;
67904;SDS011;54709;43.614;1.576;2022-12-29T14:49:49;13.43;;;6.13;;
67904;SDS011;54709;43.614;1.576;2022-12-29T14:52:21;16.20;;;6.05;;
67904;SDS011;54709;43.614;1.576;2022-12-29T14:54:52;13.50;;;5.97;;
67904;SDS011;54709;43.614;1.576;2022-12-29T14:57:39;18.63;;;7.20;;
67904;SDS011;54709;43.614;1.576;2022-12-29T15:02:34;15.02;;;5.88;;
67904;SDS011;54709;43.614;1.576;2022-12-29T15:05:03;10.85;;;6.10;;
67904;SDS011;54709;43.614;1.576;2022-12-29T15:07:30;16.58;;;6.53;;
67904;SDS011;54709;43.614;1.576;2022-12-29T15:10:05;14.10;;;5.85;;
67904;SDS011;54709;43.614;1.576;2022-12-29T15:12:37;11.52;;;6.32;;
67904;SDS011;54709;43.614;1.576;2022-12-29T15:17:57;15.13;;;6.18;;
67904;SDS011;54709;43.614;1.576;2022-12-29T15:20:24;15.75;;;7.65;;
67904;SDS011;54709;43.614;1.576;2022-12-29T15:22:57;13.45;;;7.03;;
67904;SDS011;54709;43.614;1.576;2022-12-29T15:27:59;23.92;;;10.93;;
67904;SDS011;54709;43.614;1.576;2022-12-29T15:30:27;17.13;;;6.88;;
67904;SDS011;54709;43.614;1.576;2022-12-29T15:32:52;12.20;;;6.57;;
67904;SDS011;54709;43.614;1.576;2022-12-29T15:35:22;23.60;;;7.72;;
67904;SDS011;54709;43.614;1.576;2022-12-29T15:37:59;14.80;;;7.10;;
67904;SDS011;54709;43.614;1.576;2022-12-29T15:40:31;14.95;;;7.40;;
67904;SDS011;54709;43.614;1.576;2022-12-29T15:45:38;13.27;;;7.65;;
67904;SDS011;54709;43.614;1.576;2022-12-29T15:48:04;18.65;;;7.72;;
67904;SDS011;54709;43.614;1.576;2022-12-29T15:50:34;15.38;;;7.05;;
67904;SDS011;54709;43.614;1.576;2022-12-29T15:53:00;16.48;;;7.25;;
67904;SDS011;54709;43.614;1.576;2022-12-29T15:55:30;25.60;;;7.88;;
67904;SDS011;54709;43.614;1.576;2022-12-29T15:57:59;17.90;;;8.57;;
67904;SDS011;54709;43.614;1.576;2022-12-29T16:03:02;20.45;;;9.07;;
67904;SDS011;54709;43.614;1.576;2022-12-29T16:05:36;22.05;;;9.50;;
67904;SDS011;54709;43.614;1.576;2022-12-29T16:08:02;23.58;;;10.30;;
67904;SDS011;54709;43.614;1.576;2022-12-29T16:10:38;24.83;;;10.23;;
67904;SDS011;54709;43.614;1.576;2022-12-29T16:13:12;19.20;;;8.88;;
67904;SDS011;54709;43.614;1.576;2022-12-29T16:15:47;17.55;;;8.30;;
67904;SDS011;54709;43.614;1.576;2022-12-29T16:18:20;21.10;;;8.63;;
67904;SDS011;54709;43.614;1.576;2022-12-29T16:20:49;18.58;;;8.95;;
67904;SDS011;54709;43.614;1.576;2022-12-29T16:23:19;20.73;;;9.55;;
67904;SDS011;54709;43.614;1.576;2022-12-29T16:25:45;20.98;;;8.93;;
67904;SDS011;54709;43.614;1.576;2022-12-29T16:28:14;22.45;;;9.13;;
67904;SDS011;54709;43.614;1.576;2022-12-29T16:30:42;22.92;;;11.07;;
67904;SDS011;54709;43.614;1.576;2022-12-29T16:39:04;29.85;;;16.95;;
67904;SDS011;54709;43.614;1.576;2022-12-29T16:41:50;27.45;;;12.10;;
67904;SDS011;54709;43.614;1.576;2022-12-29T16:49:36;23.35;;;13.10;;
67904;SDS011;54709;43.614;1.576;2022-12-29T16:52:19;24.17;;;14.20;;
67904;SDS011;54709;43.614;1.576;2022-12-29T16:54:51;23.05;;;12.15;;
67904;SDS011;54709;43.614;1.576;2022-12-29T17:02:16;17.33;;;11.35;;
67904;SDS011;54709;43.614;1.576;2022-12-29T17:04:44;20.10;;;11.07;;
67904;SDS011;54709;43.614;1.576;2022-12-29T17:07:17;23.70;;;11.18;;
67904;SDS011;54709;43.614;1.576;2022-12-29T17:09:44;23.25;;;10.50;;
67904;SDS011;54709;43.614;1.576;2022-12-29T17:12:10;26.02;;;12.63;;
67904;SDS011;54709;43.614;1.576;2022-12-29T17:20:16;29.33;;;15.50;;
67904;SDS011;54709;43.614;1.576;2022-12-29T17:22:43;38.47;;;17.13;;
67904;SDS011;54709;43.614;1.576;2022-12-29T17:25:13;32.72;;;15.43;;
67904;SDS011;54709;43.614;1.576;2022-12-29T17:27:41;23.63;;;14.65;;
67904;SDS011;54709;43.614;1.576;2022-12-29T17:30:12;23.70;;;15.40;;
67904;SDS011;54709;43.614;1.576;2022-12-29T17:32:42;31.10;;;15.20;;
67904;SDS011;54709;43.614;1.576;2022-12-29T17:35:14;27.05;;;17.27;;
67904;SDS011;54709;43.614;1.576;2022-12-29T17:37:41;47.42;;;30.85;;
67904;SDS011;54709;43.614;1.576;2022-12-29T17:40:09;38.70;;;22.90;;
67904;SDS011;54709;43.614;1.576;2022-12-29T17:42:39;21.60;;;13.55;;